CheckWX is a tool to help pilots better visualize weather data.  It is not intended as a substitute for an official pre-flight weather briefing.

08:12:57 UTC

KLAW TAF
Lawton-Fort Sill Regional Airport
Lawton, Oklahoma, USA
KLAW 190520Z 1906/2006 17004KT P6SM SKC FM191400 19010KT P6SM SKC FM191800 20013G19KT P6SM SCT080 FM200500 36007KT P6SM OVC100

Mar-19@
06:00 UTC

Mar-19 @ 06:00 UTC

Mar-19@
14:00 UTC

Mar-19 @ 14:00 UTC

KLAW 190520Z 1906/2006 17004KT P6SM SKC
Wind
  • 170° at 4 KTS
Cloud Levels
  • Clear skies

Mar-19@
14:00 UTC

Mar-19 @ 14:00 UTC

Mar-19@
18:00 UTC

Mar-19 @ 18:00 UTC

FM191400 19010KT P6SM SKC

From

From Standard forecast or significant change

Wind
  • 190° at 10 KTS
Cloud Levels
  • Clear skies

Mar-19@
18:00 UTC

Mar-19 @ 18:00 UTC

Mar-20@
05:00 UTC

Mar-20 @ 05:00 UTC

FM191800 20013G19KT P6SM SCT080

From

From Standard forecast or significant change

Wind
  • 200° at 13 KTS
  • {Gusting to 19 KTS
Cloud Levels
  • Scattered at 8,000' AGL

Mar-20@
05:00 UTC

Mar-20 @ 05:00 UTC

Mar-20@
06:00 UTC

Mar-20 @ 06:00 UTC

FM200500 36007KT P6SM OVC100

From

From Standard forecast or significant change

Wind
  • 360° at 7 KTS
Cloud Levels
  • Overcast at 10,000' AGL